Time;durP1;ratioP1;P1;durP2;ratioP2;P2;SDS_P1;SDS_P2;PMS_P1;PMS_P2;Temp;Humidity;BMP_temperature;BMP_pressure;BME280_temperature;BME280_humidity;BME280_pressure;Samples;Min_cycle;Max_cycle;Signal;HPM_P1;HPM_P2
2022/03/18 00:01:10;;;;;;;;;;;23.90;49.90;;;;;;5079321;28;1984;-37
2022/03/18 00:03:37;;;;;;;;;;;23.90;50.00;;;;;;5079005;28;908;-37
2022/03/18 00:06:04;;;;;;;;;;;23.90;49.80;;;;;;5078946;28;989;-37
2022/03/18 00:08:30;;;;;;;;;;;23.90;49.80;;;;;;5079744;28;937;-36
2022/03/18 00:10:57;;;;;;;;;;;23.90;49.70;;;;;;5078788;28;980;-36
2022/03/18 00:13:24;;;;;;;;;;;24.00;49.60;;;;;;5078995;28;938;-38
2022/03/18 00:15:54;;;;;;;;;;;23.90;49.60;;;;;;5079217;28;877;-38
2022/03/18 00:18:21;;;;;;;;;;;23.90;49.60;;;;;;5078961;28;937;-37
2022/03/18 00:20:48;;;;;;;;;;;23.90;49.50;;;;;;5078125;28;1980;-37
2022/03/18 00:23:15;;;;;;;;;;;23.90;49.40;;;;;;5078373;28;973;-37
2022/03/18 00:25:42;;;;;;;;;;;23.90;49.50;;;;;;5078988;28;1011;-37
2022/03/18 00:28:09;;;;;;;;;;;23.90;49.50;;;;;;5078984;28;1019;-37
2022/03/18 00:30:35;;;;;;;;;;;23.90;49.60;;;;;;5080195;28;948;-38
2022/03/18 00:33:05;;;;;;;;;;;23.90;49.50;;;;;;5080473;28;970;-38
2022/03/18 00:35:31;;;;;;;;;;;23.90;49.50;;;;;;5080344;28;981;-37
2022/03/18 00:38:00;;;;;;;;;;;23.80;49.40;;;;;;5079732;28;976;-38
2022/03/18 00:40:27;;;;;;;;;;;23.90;49.60;;;;;;5079997;28;1903;-37
2022/03/18 00:42:56;;;;;;;;;;;23.80;49.60;;;;;;5080519;28;996;-39
2022/03/18 00:45:23;;;;;;;;;;;23.80;49.60;;;;;;5079507;28;937;-37
2022/03/18 00:53:20;;;;;;;;;;;23.80;49.50;;;;;;5079974;28;999;-36
2022/03/18 00:55:46;;;;;;;;;;;23.70;49.50;;;;;;5079639;28;925;-36
2022/03/18 00:58:13;;;;;;;;;;;23.80;49.50;;;;;;5079036;28;968;-37
2022/03/18 01:00:40;;;;;;;;;;;23.70;49.60;;;;;;5078100;28;1901;-36
2022/03/18 01:03:07;;;;;;;;;;;23.80;49.60;;;;;;5076958;28;944;-36
2022/03/18 01:05:33;;;;;;;;;;;23.70;49.50;;;;;;5077781;28;1008;-38
2022/03/18 01:08:01;;;;;;;;;;;23.70;49.50;;;;;;5079371;28;988;-36
2022/03/18 01:10:28;;;;;;;;;;;23.70;49.60;;;;;;5078181;28;956;-38
2022/03/18 01:12:55;;;;;;;;;;;23.70;49.50;;;;;;5078381;28;1031;-38
2022/03/18 01:15:21;;;;;;;;;;;23.70;49.60;;;;;;5079366;28;1004;-36
2022/03/18 01:17:48;;;;;;;;;;;23.70;49.50;;;;;;5078986;28;1010;-36
2022/03/18 01:20:15;;;;;;;;;;;23.60;49.50;;;;;;5077471;28;1905;-37
2022/03/18 01:22:41;;;;;;;;;;;23.60;49.60;;;;;;5078697;28;944;-37
2022/03/18 01:25:10;;;;;;;;;;;23.60;49.70;;;;;;5077573;28;1004;-37
2022/03/18 01:27:37;;;;;;;;;;;23.60;49.80;;;;;;5078625;28;924;-37
2022/03/18 01:30:04;;;;;;;;;;;23.60;49.80;;;;;;5078452;28;1108;-37
2022/03/18 01:32:32;;;;;;;;;;;23.60;49.70;;;;;;5079074;28;913;-36
2022/03/18 01:34:59;;;;;;;;;;;23.50;49.70;;;;;;5079142;28;1117;-36
2022/03/18 01:37:26;;;;;;;;;;;23.50;49.90;;;;;;5078566;28;881;-38
2022/03/18 01:39:53;;;;;;;;;;;23.50;49.80;;;;;;5079027;28;1914;-37
2022/03/18 01:42:21;;;;;;;;;;;23.40;49.90;;;;;;5078514;28;984;-36
2022/03/18 01:44:48;;;;;;;;;;;23.50;50.00;;;;;;5078488;28;991;-37
2022/03/18 01:47:15;;;;;;;;;;;23.40;50.10;;;;;;5078306;28;975;-36
2022/03/18 01:49:42;;;;;;;;;;;23.40;50.00;;;;;;5078667;28;1254;-37
2022/03/18 01:52:09;;;;;;;;;;;23.40;50.20;;;;;;5078141;28;1167;-39
2022/03/18 01:54:48;;;;;;;;;;;23.40;50.00;;;;;;5078703;28;1055;-36
2022/03/18 01:57:16;;;;;;;;;;;23.40;50.00;;;;;;5077722;28;936;-37
2022/03/18 01:59:44;;;;;;;;;;;23.40;50.20;;;;;;5078759;28;1901;-37
2022/03/18 02:02:10;;;;;;;;;;;23.30;50.30;;;;;;5077190;28;976;-37
2022/03/18 02:04:37;;;;;;;;;;;23.30;50.20;;;;;;5077399;28;1005;-38
2022/03/18 02:07:05;;;;;;;;;;;23.30;50.30;;;;;;5077652;28;1154;-37
2022/03/18 02:09:32;;;;;;;;;;;23.20;50.50;;;;;;5078099;28;1019;-38
2022/03/18 02:11:59;;;;;;;;;;;23.30;50.50;;;;;;5077532;28;1019;-39
2022/03/18 02:14:32;;;;;;;;;;;23.30;50.30;;;;;;5077917;28;1017;-37
2022/03/18 02:17:01;;;;;;;;;;;23.30;50.30;;;;;;5077740;28;1404;-39
2022/03/18 02:19:28;;;;;;;;;;;23.30;50.40;;;;;;5078331;28;1051;-37
2022/03/18 02:21:56;;;;;;;;;;;23.20;50.40;;;;;;5076757;28;1902;-39
2022/03/18 02:24:24;;;;;;;;;;;23.20;50.30;;;;;;5077773;28;1001;-36
2022/03/18 02:26:52;;;;;;;;;;;23.20;50.40;;;;;;5077528;28;1004;-37
2022/03/18 02:29:19;;;;;;;;;;;23.10;50.50;;;;;;5077991;28;961;-37
2022/03/18 02:31:46;;;;;;;;;;;23.10;50.50;;;;;;5077228;28;941;-36
2022/03/18 02:34:13;;;;;;;;;;;23.10;50.60;;;;;;5077067;28;981;-36
2022/03/18 02:36:39;;;;;;;;;;;23.10;50.60;;;;;;5077391;28;1000;-38
2022/03/18 02:39:06;;;;;;;;;;;23.10;50.50;;;;;;5077961;28;984;-37
2022/03/18 02:41:35;;;;;;;;;;;23.10;50.50;;;;;;5077902;28;1893;-38
2022/03/18 02:44:02;;;;;;;;;;;23.10;50.60;;;;;;5077809;28;933;-37
2022/03/18 02:46:32;;;;;;;;;;;23.10;50.40;;;;;;5077979;28;948;-38
2022/03/18 02:48:59;;;;;;;;;;;23.10;50.50;;;;;;5078108;28;1117;-37
2022/03/18 02:51:26;;;;;;;;;;;23.10;50.50;;;;;;5077949;28;1016;-38
2022/03/18 02:53:52;;;;;;;;;;;23.10;50.60;;;;;;5078182;28;976;-36
2022/03/18 02:56:19;;;;;;;;;;;23.10;50.60;;;;;;5078292;28;929;-37
2022/03/18 02:58:48;;;;;;;;;;;23.10;50.60;;;;;;5077372;28;988;-37
2022/03/18 03:01:14;;;;;;;;;;;23.00;50.50;;;;;;5077955;28;1910;-36
2022/03/18 03:03:41;;;;;;;;;;;23.10;50.60;;;;;;5078266;28;1000;-37
2022/03/18 03:12:05;;;;;;;;;;;23.10;50.60;;;;;;5077789;28;696;-36
2022/03/18 03:14:35;;;;;;;;;;;23.00;50.60;;;;;;5082198;28;1207;-36
2022/03/18 03:17:02;;;;;;;;;;;23.00;50.70;;;;;;5081624;28;956;-36
2022/03/18 03:19:30;;;;;;;;;;;23.00;50.50;;;;;;5081456;28;1006;-38
2022/03/18 03:21:56;;;;;;;;;;;23.00;50.80;;;;;;5081667;28;1977;-38
2022/03/18 03:24:23;;;;;;;;;;;23.00;50.80;;;;;;5082028;28;1065;-36
2022/03/18 03:26:50;;;;;;;;;;;23.00;50.70;;;;;;5081205;28;996;-37
2022/03/18 03:29:16;;;;;;;;;;;23.00;50.60;;;;;;5081365;28;950;-36
2022/03/18 03:31:45;;;;;;;;;;;23.00;50.60;;;;;;5081318;28;905;-38
2022/03/18 03:34:14;;;;;;;;;;;23.00;50.60;;;;;;5081746;28;956;-39
2022/03/18 03:36:41;;;;;;;;;;;23.00;50.70;;;;;;5080071;28;1017;-37
2022/03/18 03:39:08;;;;;;;;;;;23.00;50.60;;;;;;5080442;28;1004;-36
2022/03/18 03:41:34;;;;;;;;;;;23.00;50.60;;;;;;5080152;28;1910;-37
2022/03/18 03:44:01;;;;;;;;;;;23.10;50.50;;;;;;5081253;28;1858;-37
2022/03/18 03:46:28;;;;;;;;;;;23.00;50.50;;;;;;5081120;28;984;-36
2022/03/18 03:48:56;;;;;;;;;;;23.00;50.50;;;;;;5081017;28;1183;-38
2022/03/18 03:51:23;;;;;;;;;;;23.00;50.30;;;;;;5080459;28;1015;-37
2022/03/18 03:53:50;;;;;;;;;;;23.10;50.30;;;;;;5080000;28;1007;-37
2022/03/18 03:56:16;;;;;;;;;;;23.10;50.40;;;;;;5079767;28;1010;-38
2022/03/18 03:58:43;;;;;;;;;;;23.00;50.30;;;;;;5081402;28;913;-39
2022/03/18 04:01:10;;;;;;;;;;;23.00;50.40;;;;;;5080917;28;1914;-37
2022/03/18 04:03:37;;;;;;;;;;;23.00;50.30;;;;;;5080713;28;981;-37
2022/03/18 04:06:05;;;;;;;;;;;23.00;50.40;;;;;;5080678;28;1004;-36
2022/03/18 04:08:32;;;;;;;;;;;23.00;50.50;;;;;;5081224;28;1014;-37
2022/03/18 04:10:59;;;;;;;;;;;23.00;50.50;;;;;;5080722;28;996;-39
2022/03/18 04:13:25;;;;;;;;;;;23.00;50.30;;;;;;5080743;28;977;-39
2022/03/18 04:15:52;;;;;;;;;;;23.00;50.40;;;;;;5080462;28;1024;-36
2022/03/18 04:18:19;;;;;;;;;;;23.00;50.50;;;;;;5080644;28;1002;-40
2022/03/18 04:20:46;;;;;;;;;;;23.00;50.30;;;;;;5079906;28;1902;-36
2022/03/18 04:23:14;;;;;;;;;;;23.00;50.40;;;;;;5080038;28;912;-36
2022/03/18 04:25:41;;;;;;;;;;;23.00;50.30;;;;;;5079794;28;936;-37
2022/03/18 04:28:08;;;;;;;;;;;23.00;50.40;;;;;;5080540;28;1001;-37
2022/03/18 04:30:34;;;;;;;;;;;22.90;50.40;;;;;;5080969;28;928;-38
2022/03/18 04:33:01;;;;;;;;;;;22.90;50.40;;;;;;5079805;28;1021;-38
2022/03/18 04:35:31;;;;;;;;;;;23.00;50.40;;;;;;5079891;28;957;-37
2022/03/18 04:37:58;;;;;;;;;;;22.90;50.40;;;;;;5079515;28;1012;-37
2022/03/18 04:40:26;;;;;;;;;;;22.90;50.40;;;;;;5079299;28;1906;-36
2022/03/18 04:42:53;;;;;;;;;;;22.90;50.40;;;;;;5079059;28;896;-37
2022/03/18 04:45:20;;;;;;;;;;;22.90;50.40;;;;;;5079833;28;940;-38
2022/03/18 04:47:46;;;;;;;;;;;22.90;50.50;;;;;;5079181;28;1037;-37
2022/03/18 04:50:13;;;;;;;;;;;22.80;51.70;;;;;;5079934;28;1032;-39
2022/03/18 04:52:40;;;;;;;;;;;22.80;50.70;;;;;;5079816;28;991;-37
2022/03/18 04:55:07;;;;;;;;;;;22.90;50.60;;;;;;5080008;28;952;-39
2022/03/18 04:57:36;;;;;;;;;;;22.80;50.50;;;;;;5079598;28;957;-41
2022/03/18 05:00:04;;;;;;;;;;;22.80;50.70;;;;;;5079905;28;984;-36
2022/03/18 05:02:31;;;;;;;;;;;22.80;50.70;;;;;;5079130;28;1902;-36
2022/03/18 05:04:58;;;;;;;;;;;22.80;50.40;;;;;;5079506;28;1118;-36
2022/03/18 05:07:25;;;;;;;;;;;22.80;50.50;;;;;;5078239;28;941;-38
2022/03/18 05:09:51;;;;;;;;;;;22.80;50.60;;;;;;5079605;28;949;-40
2022/03/18 05:12:18;;;;;;;;;;;22.80;50.50;;;;;;5079809;28;916;-39
2022/03/18 05:14:47;;;;;;;;;;;22.70;50.70;;;;;;5079700;28;1004;-42
2022/03/18 05:17:14;;;;;;;;;;;22.70;50.60;;;;;;5078488;28;1008;-40
2022/03/18 05:19:41;;;;;;;;;;;22.70;50.70;;;;;;5078126;28;981;-39
2022/03/18 05:22:08;;;;;;;;;;;22.70;50.80;;;;;;5077801;28;1906;-39
2022/03/18 05:24:35;;;;;;;;;;;22.70;50.90;;;;;;5078786;28;951;-40
2022/03/18 05:27:02;;;;;;;;;;;22.70;50.70;;;;;;5077666;28;980;-40
2022/03/18 05:29:29;;;;;;;;;;;22.80;50.50;;;;;;5078686;28;1071;-39
2022/03/18 05:31:58;;;;;;;;;;;22.70;50.60;;;;;;5077478;28;1007;-40
2022/03/18 05:34:25;;;;;;;;;;;22.70;50.70;;;;;;5077541;28;1054;-39
2022/03/18 05:36:51;;;;;;;;;;;22.70;50.70;;;;;;5076590;28;955;-40
2022/03/18 05:39:18;;;;;;;;;;;22.70;50.50;;;;;;5077695;28;1420;-40
2022/03/18 05:41:45;;;;;;;;;;;22.70;50.70;;;;;;5076897;28;1906;-39
2022/03/18 05:44:13;;;;;;;;;;;22.60;50.80;;;;;;5077761;28;980;-39
2022/03/18 05:46:40;;;;;;;;;;;22.60;50.80;;;;;;5076525;28;941;-39
2022/03/18 05:49:08;;;;;;;;;;;22.70;50.80;;;;;;5076356;28;1139;-40
2022/03/18 05:51:35;;;;;;;;;;;22.70;50.60;;;;;;5076603;28;1044;-39
2022/03/18 05:54:01;;;;;;;;;;;22.70;50.60;;;;;;5077487;28;1014;-38
2022/03/18 05:59:12;;;;;;;;;;;22.60;50.80;;;;;;5077441;28;1021;-38
2022/03/18 06:01:39;;;;;;;;;;;22.60;50.80;;;;;;5076878;28;1898;-39
2022/03/18 06:04:10;;;;;;;;;;;22.60;50.70;;;;;;5076444;28;1019;-38
2022/03/18 06:06:37;;;;;;;;;;;22.60;50.90;;;;;;5075814;28;936;-38
2022/03/18 06:11:52;;;;;;;;;;;22.60;50.70;;;;;;5075556;28;609;-40
2022/03/18 06:14:19;;;;;;;;;;;22.60;50.80;;;;;;5076821;28;994;-39
2022/03/18 06:16:47;;;;;;;;;;;22.60;50.70;;;;;;5075255;28;877;-38
2022/03/18 06:19:15;;;;;;;;;;;22.60;50.70;;;;;;5073864;28;1019;-39
2022/03/18 06:21:43;;;;;;;;;;;22.60;50.70;;;;;;5073652;28;1995;-39
2022/03/18 06:24:10;;;;;;;;;;;22.60;50.60;;;;;;5074744;28;998;-38
2022/03/18 06:26:37;;;;;;;;;;;22.70;50.60;;;;;;5076153;28;972;-38
2022/03/18 06:29:04;;;;;;;;;;;22.60;50.60;;;;;;5075727;28;1178;-40
2022/03/18 06:31:31;;;;;;;;;;;22.70;50.60;;;;;;5075608;28;1631;-40
2022/03/18 06:33:58;;;;;;;;;;;22.70;50.50;;;;;;5095003;28;988;-37
2022/03/18 06:36:27;;;;;;;;;;;22.80;50.40;;;;;;5093567;28;973;-37
2022/03/18 06:38:54;;;;;;;;;;;22.60;50.40;;;;;;5095488;28;1012;-36
2022/03/18 06:41:20;;;;;;;;;;;22.40;50.70;;;;;;5095282;28;1978;-37
2022/03/18 06:43:47;;;;;;;;;;;22.50;50.90;;;;;;5095179;28;1726;-36
2022/03/18 06:46:15;;;;;;;;;;;22.50;50.80;;;;;;5097135;28;1122;-37
2022/03/18 06:48:42;;;;;;;;;;;22.50;50.70;;;;;;5096398;28;1075;-36
2022/03/18 06:51:09;;;;;;;;;;;22.40;50.90;;;;;;5096609;28;915;-36
2022/03/18 06:53:37;;;;;;;;;;;22.40;50.90;;;;;;5096371;28;1042;-36
2022/03/18 06:56:05;;;;;;;;;;;22.40;50.90;;;;;;5094459;28;984;-36
2022/03/18 06:58:32;;;;;;;;;;;22.30;51.10;;;;;;5095161;28;1193;-36
2022/03/18 07:00:58;;;;;;;;;;;22.30;51.20;;;;;;5094966;28;932;-37
2022/03/18 07:03:25;;;;;;;;;;;22.30;51.20;;;;;;5095663;28;1983;-36
2022/03/18 07:05:52;;;;;;;;;;;22.30;51.20;;;;;;5093833;28;1016;-38
2022/03/18 07:08:19;;;;;;;;;;;22.30;51.30;;;;;;5095263;28;964;-37
2022/03/18 07:10:47;;;;;;;;;;;22.30;51.30;;;;;;5092987;28;904;-39
2022/03/18 07:13:15;;;;;;;;;;;22.30;52.70;;;;;;5094798;28;1092;-38
2022/03/18 07:15:42;;;;;;;;;;;22.30;51.70;;;;;;5094560;28;980;-38
2022/03/18 07:18:08;;;;;;;;;;;22.30;51.60;;;;;;5095502;28;1001;-39
2022/03/18 07:20:36;;;;;;;;;;;22.30;51.60;;;;;;5095692;28;933;-38
2022/03/18 07:23:04;;;;;;;;;;;22.20;51.90;;;;;;5095892;28;1909;-37
2022/03/18 07:25:31;;;;;;;;;;;22.10;52.20;;;;;;5094330;28;754;-39
2022/03/18 07:27:59;;;;;;;;;;;22.10;52.10;;;;;;5095143;28;991;-38
2022/03/18 07:30:26;;;;;;;;;;;22.20;51.90;;;;;;5096053;28;1011;-41
2022/03/18 07:32:53;;;;;;;;;;;22.20;51.90;;;;;;5095744;28;968;-44
2022/03/18 07:35:19;;;;;;;;;;;22.30;52.00;;;;;;5094553;28;941;-36
2022/03/18 07:37:47;;;;;;;;;;;22.30;52.00;;;;;;5093091;28;1058;-40
2022/03/18 07:40:15;;;;;;;;;;;22.30;52.20;;;;;;5095700;28;928;-40
2022/03/18 07:42:42;;;;;;;;;;;22.40;52.10;;;;;;5095477;28;1906;-36
2022/03/18 07:45:11;;;;;;;;;;;22.30;52.30;;;;;;5094669;28;1007;-39
2022/03/18 07:47:38;;;;;;;;;;;22.40;52.30;;;;;;5095558;28;972;-38
2022/03/18 07:50:05;;;;;;;;;;;22.20;52.30;;;;;;5095195;28;1129;-32
2022/03/18 07:52:32;;;;;;;;;;;22.10;53.30;;;;;;5094801;28;1074;-34
2022/03/18 07:54:59;;;;;;;;;;;22.30;52.50;;;;;;5096101;28;1161;-34
2022/03/18 07:57:26;;;;;;;;;;;22.30;52.40;;;;;;5095383;28;1012;-34
2022/03/18 07:59:52;;;;;;;;;;;22.10;52.50;;;;;;5096256;28;1200;-34
2022/03/18 08:02:21;;;;;;;;;;;22.10;52.60;;;;;;5099502;28;1906;-34
2022/03/18 08:04:51;;;;;;;;;;;22.00;52.70;;;;;;5098026;28;1029;-34
2022/03/18 08:07:18;;;;;;;;;;;22.00;52.80;;;;;;5098213;28;2030;-34
2022/03/18 08:09:44;;;;;;;;;;;22.00;52.60;;;;;;5098130;28;995;-34
2022/03/18 08:12:11;;;;;;;;;;;22.10;52.60;;;;;;5099078;28;991;-34
2022/03/18 08:14:38;;;;;;;;;;;22.00;52.70;;;;;;5097412;28;944;-34
2022/03/18 08:17:05;;;;;;;;;;;22.00;52.80;;;;;;5096993;28;992;-34
2022/03/18 08:19:33;;;;;;;;;;;21.90;52.90;;;;;;5097014;28;968;-34
2022/03/18 08:22:01;;;;;;;;;;;22.00;52.90;;;;;;5098378;28;1905;-34
2022/03/18 08:24:28;;;;;;;;;;;22.00;52.80;;;;;;5097700;28;998;-34
2022/03/18 08:26:55;;;;;;;;;;;21.90;52.70;;;;;;5096696;28;964;-34
2022/03/18 08:29:22;;;;;;;;;;;22.00;52.60;;;;;;5098065;28;1767;-34
2022/03/18 08:31:49;;;;;;;;;;;22.00;52.60;;;;;;5097667;28;992;-34
2022/03/18 08:34:15;;;;;;;;;;;22.00;52.70;;;;;;5098164;28;983;-34
2022/03/18 08:36:44;;;;;;;;;;;22.00;52.70;;;;;;5096629;28;1020;-34
2022/03/18 08:39:10;;;;;;;;;;;22.00;52.70;;;;;;5097551;28;995;-34
2022/03/18 08:41:37;;;;;;;;;;;21.90;52.80;;;;;;5096696;28;1980;-34
2022/03/18 08:44:04;;;;;;;;;;;22.00;52.60;;;;;;5097730;28;1027;-34
2022/03/18 08:46:33;;;;;;;;;;;21.90;52.60;;;;;;5097840;28;1035;-34
2022/03/18 08:49:00;;;;;;;;;;;22.00;52.60;;;;;;5097290;28;1067;-34
2022/03/18 08:51:27;;;;;;;;;;;22.00;52.60;;;;;;5098081;28;968;-34
2022/03/18 08:53:55;;;;;;;;;;;22.00;52.60;;;;;;5097846;28;1002;-34
2022/03/18 08:56:22;;;;;;;;;;;21.90;52.80;;;;;;5098364;28;960;-39
2022/03/18 08:58:50;;;;;;;;;;;22.00;52.60;;;;;;5097369;28;992;-39
2022/03/18 09:01:17;;;;;;;;;;;22.10;52.30;;;;;;5098041;28;984;-36
2022/03/18 09:03:43;;;;;;;;;;;22.20;50.60;;;;;;5098482;28;1976;-42
2022/03/18 09:06:11;;;;;;;;;;;22.20;50.50;;;;;;5097048;28;1075;-40
2022/03/18 09:08:38;;;;;;;;;;;22.20;50.30;;;;;;5093950;28;1357;-41
2022/03/18 09:11:07;;;;;;;;;;;22.30;49.70;;;;;;5095130;28;1576;-36
2022/03/18 09:13:35;;;;;;;;;;;22.30;49.30;;;;;;5096901;28;932;-36
2022/03/18 09:16:02;;;;;;;;;;;22.30;48.20;;;;;;5084568;28;941;-36
2022/03/18 09:18:28;;;;;;;;;;;22.40;47.40;;;;;;5096267;28;1031;-36
2022/03/18 09:20:55;;;;;;;;;;;22.30;47.50;;;;;;5097592;28;948;-36
2022/03/18 09:23:22;;;;;;;;;;;22.30;47.30;;;;;;5097921;28;1978;-37
2022/03/18 09:25:49;;;;;;;;;;;22.30;47.20;;;;;;5096913;28;841;-36
2022/03/18 09:28:17;;;;;;;;;;;22.30;47.10;;;;;;5098113;28;995;-36
2022/03/18 09:30:44;;;;;;;;;;;22.20;47.70;;;;;;5098685;28;980;-36
2022/03/18 09:33:11;;;;;;;;;;;22.30;47.90;;;;;;5097812;28;995;-34
2022/03/18 09:35:39;;;;;;;;;;;22.30;46.80;;;;;;5097977;28;975;-34
2022/03/18 09:38:05;;;;;;;;;;;22.20;44.90;;;;;;5084217;28;2136;-34
2022/03/18 09:40:32;;;;;;;;;;;22.10;46.50;;;;;;5075739;28;1012;-33
2022/03/18 09:43:00;;;;;;;;;;;22.20;47.20;;;;;;5077297;28;1897;-33
2022/03/18 09:45:31;;;;;;;;;;;22.20;47.50;;;;;;5077504;28;880;-33
2022/03/18 09:47:59;;;;;;;;;;;22.10;48.90;;;;;;5077055;28;1061;-33
2022/03/18 09:50:26;;;;;;;;;;;22.00;48.00;;;;;;5076385;28;1182;-33
2022/03/18 09:52:52;;;;;;;;;;;22.00;48.00;;;;;;5076786;28;1022;-33
2022/03/18 09:55:19;;;;;;;;;;;22.00;48.30;;;;;;5076482;28;1008;-33
2022/03/18 09:57:46;;;;;;;;;;;22.00;48.40;;;;;;5075855;28;971;-33
2022/03/18 10:00:13;;;;;;;;;;;22.00;48.70;;;;;;5074268;28;999;-33
2022/03/18 10:02:41;;;;;;;;;;;22.00;49.00;;;;;;5074374;28;1914;-33
2022/03/18 10:05:10;;;;;;;;;;;21.90;49.10;;;;;;5075261;28;1045;-33
2022/03/18 10:07:37;;;;;;;;;;;21.90;49.30;;;;;;5074104;28;1031;-33
2022/03/18 10:10:10;;;;;;;;;;;21.90;49.50;;;;;;5075787;28;994;-33
2022/03/18 10:12:39;;;;;;;;;;;21.90;49.80;;;;;;5076631;28;1050;-33
2022/03/18 10:15:08;;;;;;;;;;;21.90;49.80;;;;;;5075355;28;1124;-33
2022/03/18 10:17:43;;;;;;;;;;;21.90;50.00;;;;;;5075641;28;861;-33
2022/03/18 10:20:23;;;;;;;;;;;21.90;50.10;;;;;;5074474;28;1402;-33
2022/03/18 10:22:50;;;;;;;;;;;21.90;50.20;;;;;;5075906;28;1914;-33
2022/03/18 10:25:32;;;;;;;;;;;21.90;50.00;;;;;;5074085;28;991;-33
2022/03/18 10:27:59;;;;;;;;;;;21.80;50.10;;;;;;5075254;28;981;-33
2022/03/18 10:30:27;;;;;;;;;;;21.80;50.10;;;;;;5075735;28;940;-33
2022/03/18 10:32:55;;;;;;;;;;;21.80;50.10;;;;;;5076331;28;1024;-33
2022/03/18 10:38:13;;;;;;;;;;;21.90;50.20;;;;;;5074481;28;982;-36
2022/03/18 10:40:40;;;;;;;;;;;21.90;50.30;;;;;;5074138;28;868;-36
2022/03/18 10:43:08;;;;;;;;;;;21.90;50.30;;;;;;5074138;28;1898;-36
2022/03/18 10:45:35;;;;;;;;;;;21.90;50.40;;;;;;5075899;28;948;-35
2022/03/18 10:48:13;;;;;;;;;;;21.90;50.50;;;;;;5075643;28;1023;-36
2022/03/18 10:50:40;;;;;;;;;;;21.90;50.50;;;;;;5075330;28;1696;-36
2022/03/18 10:53:08;;;;;;;;;;;21.90;50.70;;;;;;5076039;28;952;-36
2022/03/18 10:55:36;;;;;;;;;;;21.90;50.60;;;;;;5075880;28;995;-36
2022/03/18 10:58:06;;;;;;;;;;;21.90;50.70;;;;;;5075278;28;1008;-36
2022/03/18 11:00:33;;;;;;;;;;;21.90;50.70;;;;;;5076452;28;944;-36
2022/03/18 11:03:01;;;;;;;;;;;21.90;50.80;;;;;;5076061;28;1942;-35
2022/03/18 11:05:31;;;;;;;;;;;21.90;50.80;;;;;;5073710;28;928;-36
2022/03/18 11:07:59;;;;;;;;;;;21.90;50.80;;;;;;5074946;28;963;-36
2022/03/18 11:13:12;;;;;;;;;;;21.90;50.80;;;;;;5074640;28;1029;-36
2022/03/18 11:15:42;;;;;;;;;;;21.90;51.00;;;;;;5072901;28;936;-36
2022/03/18 11:18:11;;;;;;;;;;;21.90;50.80;;;;;;5074202;28;972;-35
2022/03/18 11:20:43;;;;;;;;;;;21.90;52.10;;;;;;5074991;28;1018;-36
2022/03/18 11:23:17;;;;;;;;;;;21.90;50.90;;;;;;5074708;28;1992;-36
2022/03/18 11:25:44;;;;;;;;;;;21.90;50.80;;;;;;5074032;28;1047;-36
2022/03/18 11:28:14;;;;;;;;;;;21.90;50.90;;;;;;5074861;28;975;-36
2022/03/18 11:30:41;;;;;;;;;;;21.80;51.00;;;;;;5074111;28;999;-36
2022/03/18 11:33:18;;;;;;;;;;;21.90;51.00;;;;;;5074895;28;1021;-36
2022/03/18 11:36:05;;;;;;;;;;;21.90;50.90;;;;;;5079848;28;1218;-36
2022/03/18 11:38:47;;;;;;;;;;;21.90;50.90;;;;;;5075040;28;1068;-36
2022/03/18 11:41:14;;;;;;;;;;;21.90;50.80;;;;;;5075990;28;945;-35
2022/03/18 11:43:50;;;;;;;;;;;21.90;50.80;;;;;;5077713;28;1990;-36
2022/03/18 11:46:21;;;;;;;;;;;21.90;51.70;;;;;;5077379;28;944;-36
2022/03/18 11:48:49;;;;;;;;;;;21.90;50.80;;;;;;5075986;28;1032;-36
2022/03/18 11:51:28;;;;;;;;;;;21.90;50.80;;;;;;5077391;28;872;-36
2022/03/18 11:53:56;;;;;;;;;;;21.90;51.00;;;;;;5076254;28;957;-36
2022/03/18 11:56:23;;;;;;;;;;;21.90;50.90;;;;;;5075764;28;1027;-36
2022/03/18 11:58:51;;;;;;;;;;;21.80;50.80;;;;;;5076081;28;1316;-36
2022/03/18 12:01:36;;;;;;;;;;;21.90;50.80;;;;;;5077508;28;964;-36
2022/03/18 12:04:05;;;;;;;;;;;21.90;50.90;;;;;;5076506;28;1968;-36
2022/03/18 12:06:33;;;;;;;;;;;21.90;51.00;;;;;;5077310;28;923;-36
2022/03/18 12:09:01;;;;;;;;;;;21.90;51.10;;;;;;5075011;28;988;-36
2022/03/18 12:11:29;;;;;;;;;;;21.90;50.90;;;;;;5076892;28;924;-36
2022/03/18 12:13:56;;;;;;;;;;;21.80;51.10;;;;;;5076800;28;941;-33
2022/03/18 12:16:23;;;;;;;;;;;21.80;51.00;;;;;;5075560;28;924;-33
2022/03/18 12:18:54;;;;;;;;;;;21.90;51.20;;;;;;5076507;28;1000;-33
2022/03/18 12:21:33;;;;;;;;;;;21.90;51.00;;;;;;5076530;28;1043;-33
2022/03/18 12:24:08;;;;;;;;;;;21.90;51.10;;;;;;5075990;28;1897;-33
2022/03/18 12:26:35;;;;;;;;;;;21.90;51.00;;;;;;5076438;28;999;-33
2022/03/18 12:29:02;;;;;;;;;;;21.90;51.10;;;;;;5075726;28;1052;-33
2022/03/18 12:31:29;;;;;;;;;;;21.90;51.00;;;;;;5077330;28;1058;-33
2022/03/18 12:33:56;;;;;;;;;;;21.90;51.00;;;;;;5064178;28;960;-33
2022/03/18 12:36:24;;;;;;;;;;;21.90;51.00;;;;;;5075072;28;968;-33
2022/03/18 12:38:51;;;;;;;;;;;21.90;51.20;;;;;;5076955;28;984;-33
2022/03/18 12:41:21;;;;;;;;;;;21.90;51.10;;;;;;5076555;28;1019;-33
2022/03/18 12:43:48;;;;;;;;;;;21.90;51.00;;;;;;5075637;28;1981;-33
2022/03/18 12:46:16;;;;;;;;;;;21.80;51.10;;;;;;5075612;28;814;-33
2022/03/18 12:48:47;;;;;;;;;;;21.90;51.10;;;;;;5077536;28;1000;-33
2022/03/18 12:51:13;;;;;;;;;;;21.90;51.10;;;;;;5076777;28;1046;-33
2022/03/18 12:53:46;;;;;;;;;;;21.90;51.20;;;;;;5077375;28;1000;-33
2022/03/18 12:56:16;;;;;;;;;;;21.90;51.10;;;;;;5076087;28;1016;-33
2022/03/18 12:58:45;;;;;;;;;;;21.90;51.20;;;;;;5077881;28;1010;-35
2022/03/18 13:01:13;;;;;;;;;;;21.90;51.20;;;;;;5075493;28;955;-33
2022/03/18 13:03:46;;;;;;;;;;;21.90;51.10;;;;;;5076671;28;1906;-33
2022/03/18 13:06:18;;;;;;;;;;;21.80;51.10;;;;;;5076319;28;1019;-33
2022/03/18 13:08:47;;;;;;;;;;;21.90;51.10;;;;;;5075834;28;1018;-33
2022/03/18 13:11:14;;;;;;;;;;;21.90;51.20;;;;;;5076693;28;956;-33
2022/03/18 13:13:47;;;;;;;;;;;21.90;51.10;;;;;;5077220;28;991;-35
2022/03/18 13:16:15;;;;;;;;;;;21.90;51.00;;;;;;5076400;28;908;-33
2022/03/18 13:18:49;;;;;;;;;;;21.90;51.00;;;;;;5075068;28;944;-33
2022/03/18 13:21:15;;;;;;;;;;;21.90;51.00;;;;;;5076502;28;979;-33
2022/03/18 13:23:43;;;;;;;;;;;21.90;51.00;;;;;;5076254;28;1980;-33
2022/03/18 13:26:11;;;;;;;;;;;21.90;51.00;;;;;;5076002;28;1051;-33
2022/03/18 13:28:38;;;;;;;;;;;21.90;51.00;;;;;;5075855;28;1031;-33
2022/03/18 13:33:52;;;;;;;;;;;21.90;51.00;;;;;;5075670;28;880;-33
2022/03/18 13:36:23;;;;;;;;;;;21.90;51.00;;;;;;5075621;28;928;-33
2022/03/18 13:38:50;;;;;;;;;;;21.90;51.00;;;;;;5076176;28;1158;-33
2022/03/18 13:41:17;;;;;;;;;;;21.90;50.90;;;;;;5075943;28;873;-33
2022/03/18 13:43:46;;;;;;;;;;;21.90;50.80;;;;;;5076139;28;1983;-36
2022/03/18 13:46:15;;;;;;;;;;;21.90;51.00;;;;;;5075407;28;992;-35
2022/03/18 13:48:42;;;;;;;;;;;21.90;50.80;;;;;;5074287;28;999;-33
2022/03/18 13:51:09;;;;;;;;;;;21.90;50.80;;;;;;5075380;28;984;-35
2022/03/18 13:53:37;;;;;;;;;;;22.00;50.80;;;;;;5075295;28;1023;-35
2022/03/18 13:56:14;;;;;;;;;;;21.90;50.80;;;;;;5073630;28;929;-35
2022/03/18 13:58:40;;;;;;;;;;;21.90;50.80;;;;;;5070887;28;983;-35
2022/03/18 14:01:09;;;;;;;;;;;22.00;50.80;;;;;;5074412;28;968;-35
2022/03/18 14:03:38;;;;;;;;;;;22.00;50.70;;;;;;5075926;28;1914;-36
2022/03/18 14:06:05;;;;;;;;;;;22.00;50.70;;;;;;5076807;28;1046;-35
2022/03/18 14:08:38;;;;;;;;;;;22.00;50.70;;;;;;5076928;28;1007;-33
2022/03/18 14:12:08;;;;;;;;;;;22.00;50.70;;;;;;5077063;28;969;-35
2022/03/18 14:13:52;;;;;;;;;;;22.00;50.70;;;;;;5074910;28;1060;-35
2022/03/18 14:16:20;;;;;;;;;;;22.10;50.70;;;;;;5075923;28;948;-34
2022/03/18 14:18:48;;;;;;;;;;;22.10;50.70;;;;;;5075886;28;1032;-33
2022/03/18 14:21:15;;;;;;;;;;;22.10;50.60;;;;;;5075107;28;888;-33
2022/03/18 14:23:44;;;;;;;;;;;22.10;50.60;;;;;;5077795;28;1898;-35
2022/03/18 14:26:11;;;;;;;;;;;22.10;50.60;;;;;;5077125;28;940;-35
2022/03/18 14:28:38;;;;;;;;;;;22.10;50.50;;;;;;5074438;28;940;-35
2022/03/18 14:31:06;;;;;;;;;;;22.20;50.60;;;;;;5071403;28;944;-35
2022/03/18 14:33:35;;;;;;;;;;;22.20;50.50;;;;;;5074938;28;976;-35
2022/03/18 14:36:04;;;;;;;;;;;22.20;50.40;;;;;;5076490;28;968;-35
2022/03/18 14:38:30;;;;;;;;;;;22.20;50.40;;;;;;5076141;28;1040;-35
2022/03/18 14:41:00;;;;;;;;;;;22.30;50.70;;;;;;5075304;28;1031;-35
2022/03/18 14:43:27;;;;;;;;;;;22.20;50.60;;;;;;5075764;28;941;-35
2022/03/18 14:45:54;;;;;;;;;;;22.30;50.40;;;;;;5074157;28;940;-35
2022/03/18 14:48:21;;;;;;;;;;;22.30;50.40;;;;;;5075155;28;1411;-35
2022/03/18 14:50:47;;;;;;;;;;;22.30;50.20;;;;;;5074312;28;1162;-35
2022/03/18 14:53:16;;;;;;;;;;;22.40;50.20;;;;;;5074284;28;924;-35
2022/03/18 14:58:27;;;;;;;;;;;22.40;50.10;;;;;;5074200;28;917;-35
2022/03/18 15:00:55;;;;;;;;;;;22.40;50.10;;;;;;5074592;28;925;-35
2022/03/18 15:03:22;;;;;;;;;;;22.40;50.00;;;;;;5075017;28;954;-35
2022/03/18 15:05:48;;;;;;;;;;;22.50;50.00;;;;;;5073244;28;1906;-35
2022/03/18 15:08:18;;;;;;;;;;;22.50;50.00;;;;;;5074336;28;1396;-35